Aérodrome :
LOGIN :

S'inscrire | Disclaimer

   EN    FR    IT 

 










Légende :    VFR   VFR Marginal   IFR   IFR Intensif   IFR Très Intensif
Visi : 
Plafond : 
>= 8 km
>= 3000ft
5 à 8 km
1000 à 3000 ft
1500m à 5 km
500 à 1000 ft
800 à 1500m
200 à 500 ft
< 800m
< 200 ft
Symboles :   Orages  Brouillard  Fortes neiges  Fortes précipitations  Vent > 20 kt
SIGMETs :   Divers  Orages  Givrage  Turbulence  Onde Orograph.  Cendres Volcan.







- Altitude de l'aérodrome : 2077 ft
- Code IATA : FMM


EDJA - Memmingen

DERNIER METAR :
  • 250620Z 25010KT 9000 FEW024 BKN036 09/07 Q1008

METARs EXPIRÉS :
  • 250550Z 24009KT 9999 BKN044 OVC130 09/07 Q1008
  • 250520Z 24009KT 9999 FEW024 SCT047 OVC059 09/07 Q1007
  • 250450Z 23010KT 9999 -SHRA FEW056 BKN068TCU BKN130 10/06 Q1008
  • 250420Z 21008KT 9999 -RA FEW021 BKN058 10/06 Q1007
  • 250350Z 24012KT 9999 -RA FEW021 BKN057 10/05 Q1007

TAF TAF EDJA
Valide du 25 à 06h jusqu'au 25 à 15h UTC


250500Z 2506/2515 25012KT 9999 SCT030 BKN050
PROB30
TEMPO 2506/2514 27015G25KT SHRA SCT025 BKN050TCU
PROB30
TEMPO 2514/2515 RA BKN014
Pas de NOTAMs connus pour ce terrain.



MET'MAP, la Météo Aéronautique d'un coup d'oeil ! - Copyright ORBIFLY Décembre 2007 - Disclaimer

ORBIFLY MET'MAP TEAM :

Programmation & Développement : Alexandra Zaïnal
Conception & Développement : Baudouin d'Aumeries
Co-Programmation & Développement : Marc-Olivier Méhu
Soutien technique & logistique : Manuel Goepfert

Contact : metmap@orbifly.com




SOURCES & CREDITS :

   NOAA